Time;durP1;ratioP1;P1;durP2;ratioP2;P2;SDS_P1;SDS_P2;PMS_P1;PMS_P2;Temp;Humidity;BMP_temperature;BMP_pressure;BME280_temperature;BME280_humidity;BME280_pressure;Samples;Min_cycle;Max_cycle;Signal;HPM_P1;HPM_P2
2023/07/31 00:00:12;;;;;;;;;;;;;;;20.91;56.82;101222.09;4100462;29;19923;-55
2023/07/31 00:02:14;;;;;;;;;;;;;;;20.91;56.42;101216.75;4099374;29;19969;-54
2023/07/31 00:04:15;;;;;;;;;;;;;;;20.87;56.53;101215.28;4100434;29;19929;-55
2023/07/31 00:06:16;;;;;;;;;;;;;;;20.89;56.80;101213.34;4100428;29;20366;-55
2023/07/31 00:08:18;;;;;;;;;;;;;;;20.87;56.43;101204.56;4100451;29;20307;-55
2023/07/31 00:10:20;;;;;;;;;;;;;;;20.89;56.48;101205.34;4099845;29;20012;-55
2023/07/31 00:12:21;;;;;;;;;;;;;;;20.86;56.65;101208.22;4099531;29;19944;-56
2023/07/31 00:14:23;;;;;;;;;;;;;;;20.86;56.52;101208.22;4100365;28;20366;-55
2023/07/31 00:16:24;;;;;;;;;;;;;;;20.87;56.56;101209.91;4099994;29;19926;-55
2023/07/31 00:18:26;;;;;;;;;;;;;;;20.87;56.37;101208.09;4100093;29;19938;-55
2023/07/31 00:20:27;;;;;;;;;;;;;;;20.85;56.45;101206.50;4100225;29;19928;-55
2023/07/31 00:22:29;;;;;;;;;;;;;;;20.85;56.27;101201.16;4099223;29;20346;-51
2023/07/31 00:24:31;;;;;;;;;;;;;;;20.84;56.57;101194.09;4099898;28;19922;-53
2023/07/31 00:26:32;;;;;;;;;;;;;;;20.84;56.61;101184.25;4100232;29;19922;-55
2023/07/31 00:28:34;;;;;;;;;;;;;;;20.83;56.60;101173.69;4100124;29;20025;-55
2023/07/31 00:30:36;;;;;;;;;;;;;;;20.83;56.53;101177.22;4099903;29;19952;-55
2023/07/31 00:32:42;;;;;;;;;;;;;;;20.83;56.42;101181.72;4099214;29;20009;-54
2023/07/31 00:34:44;;;;;;;;;;;;;;;20.82;56.21;101180.84;4100087;29;19961;-55
2023/07/31 00:36:45;;;;;;;;;;;;;;;20.84;56.27;101186.94;4099916;29;19977;-55
2023/07/31 00:38:47;;;;;;;;;;;;;;;20.83;56.08;101179.88;4099464;28;20020;-55
2023/07/31 00:40:48;;;;;;;;;;;;;;;20.82;56.27;101180.00;4099629;28;19923;-56
2023/07/31 00:42:50;;;;;;;;;;;;;;;20.81;56.25;101183.63;4099703;29;19926;-55
2023/07/31 00:44:56;;;;;;;;;;;;;;;20.83;56.22;101181.72;4099910;29;19923;-54
2023/07/31 00:46:59;;;;;;;;;;;;;;;20.82;56.21;101180.84;4100088;29;20420;-55
2023/07/31 00:49:00;;;;;;;;;;;;;;;20.82;56.28;101180.84;4098835;29;19927;-54
2023/07/31 00:51:02;;;;;;;;;;;;;;;20.80;56.24;101180.09;4099233;29;19922;-55
2023/07/31 00:53:03;;;;;;;;;;;;;;;20.81;56.35;101179.13;4099407;29;19923;-55
2023/07/31 00:55:05;;;;;;;;;;;;;;;20.82;56.21;101180.00;4100015;29;19930;-55
2023/07/31 00:57:12;;;;;;;;;;;;;;;20.80;56.47;101172.06;4099869;29;19922;-55
2023/07/31 00:59:13;;;;;;;;;;;;;;;20.81;56.16;101175.59;4100068;29;19961;-55
2023/07/31 01:01:15;;;;;;;;;;;;;;;20.80;56.21;101176.56;4099062;29;20029;-55
2023/07/31 01:03:17;;;;;;;;;;;;;;;20.78;56.20;101178.50;4098504;29;20396;-53
2023/07/31 01:05:23;;;;;;;;;;;;;;;20.77;56.39;101174.97;4099762;29;20013;-55
2023/07/31 01:07:28;;;;;;;;;;;;;;;20.77;56.21;101169.63;4100868;28;19923;-55
2023/07/31 01:09:49;;;;;;;;;;;;;;;20.71;56.08;101151.31;4103009;29;19922;-53
2023/07/31 01:11:56;;;;;;;;;;;;;;;20.75;56.14;101158.19;4102291;29;19958;-54
2023/07/31 01:13:58;;;;;;;;;;;;;;;20.76;56.21;101154.56;4102964;29;19922;-55
2023/07/31 01:16:00;;;;;;;;;;;;;;;20.77;56.42;101145.56;4103036;29;19930;-54
2023/07/31 01:18:02;;;;;;;;;;;;;;;20.76;56.23;101135.84;4102914;29;20014;-54
2023/07/31 01:20:06;;;;;;;;;;;;;;;20.77;56.49;101139.34;4103090;29;19981;-55
2023/07/31 01:22:23;;;;;;;;;;;;;;;20.76;56.11;101135.00;4101351;29;20017;-53
2023/07/31 01:24:31;;;;;;;;;;;;;;;20.74;56.46;101122.59;4102821;28;19957;-55
2023/07/31 01:26:38;;;;;;;;;;;;;;;20.76;56.33;101122.47;4102588;29;19922;-50
2023/07/31 01:28:46;;;;;;;;;;;;;;;20.75;56.21;101120.75;4102739;29;19929;-54
2023/07/31 01:30:48;;;;;;;;;;;;;;;20.73;56.23;101130.72;4102607;29;19922;-54
2023/07/31 01:32:51;;;;;;;;;;;;;;;20.74;56.16;101127.06;4101983;29;19929;-55
2023/07/31 01:34:53;;;;;;;;;;;;;;;20.74;56.39;101133.28;4102642;29;19922;-55
2023/07/31 01:36:55;;;;;;;;;;;;;;;20.72;56.10;101131.69;4102420;29;19922;-55
2023/07/31 01:38:58;;;;;;;;;;;;;;;20.72;56.21;101137.88;4102446;29;19928;-55
2023/07/31 01:40:59;;;;;;;;;;;;;;;20.73;56.15;101136.06;4102433;29;20052;-56
2023/07/31 01:43:01;;;;;;;;;;;;;;;20.72;56.07;101140.56;4069272;29;19931;-55
2023/07/31 01:45:03;;;;;;;;;;;;;;;20.72;56.16;101134.38;4102481;29;19922;-55
2023/07/31 01:47:05;;;;;;;;;;;;;;;20.71;56.09;101129.94;4102526;29;19954;-55
2023/07/31 01:49:07;;;;;;;;;;;;;;;20.71;56.00;101125.44;4102458;29;20006;-56
2023/07/31 01:51:08;;;;;;;;;;;;;;;20.70;56.01;101123.72;4101407;29;20071;-54
2023/07/31 01:53:12;;;;;;;;;;;;;;;20.69;56.33;101118.50;4102309;29;19922;-54
2023/07/31 01:55:13;;;;;;;;;;;;;;;20.69;55.91;101137.22;4102435;29;19923;-56
2023/07/31 01:57:14;;;;;;;;;;;;;;;20.69;56.12;101137.22;4102257;29;19937;-53
2023/07/31 01:59:16;;;;;;;;;;;;;;;20.70;56.13;101125.56;4102335;29;19922;-55
2023/07/31 02:01:18;;;;;;;;;;;;;;;20.68;55.94;101120.34;4101743;29;19950;-55
2023/07/31 02:03:19;;;;;;;;;;;;;;;20.68;56.07;101135.50;4101925;29;19962;-56
2023/07/31 02:05:21;;;;;;;;;;;;;;;20.68;55.80;101133.69;4101742;29;19926;-55
2023/07/31 02:07:22;;;;;;;;;;;;;;;20.67;55.84;101136.47;4102140;29;19929;-55
2023/07/31 02:09:24;;;;;;;;;;;;;;;20.67;56.01;101128.44;4102114;29;19928;-52
2023/07/31 02:11:25;;;;;;;;;;;;;;;20.66;55.74;101138.28;4101596;29;19969;-55
2023/07/31 02:13:27;;;;;;;;;;;;;;;20.67;55.76;101129.31;4102061;29;19923;-54
2023/07/31 02:15:28;;;;;;;;;;;;;;;20.65;55.77;101127.72;4101908;29;19946;-55
2023/07/31 02:17:30;;;;;;;;;;;;;;;20.64;55.68;101121.50;4101469;28;19965;-55
2023/07/31 02:19:31;;;;;;;;;;;;;;;20.65;55.80;101115.19;4101809;29;19926;-54
2023/07/31 02:21:33;;;;;;;;;;;;;;;20.66;55.56;101113.41;4100034;29;19926;-55
2023/07/31 02:23:34;;;;;;;;;;;;;;;20.65;55.47;101106.34;4086114;29;19927;-54
2023/07/31 02:25:36;;;;;;;;;;;;;;;20.64;55.61;101094.78;4086035;29;19923;-56
2023/07/31 02:27:38;;;;;;;;;;;;;;;20.63;55.63;101101.09;4086199;29;20378;-55
2023/07/31 02:29:39;;;;;;;;;;;;;;;20.63;55.45;101106.44;4085942;29;19970;-55
2023/07/31 02:31:41;;;;;;;;;;;;;;;20.63;55.35;101110.94;4085383;29;20453;-55
2023/07/31 02:33:42;;;;;;;;;;;;;;;20.63;55.41;101103.75;4085645;29;19922;-55
2023/07/31 02:35:44;;;;;;;;;;;;;;;20.61;55.29;101095.00;4085554;29;19923;-54
2023/07/31 02:37:45;;;;;;;;;;;;;;;20.61;55.46;101094.13;4085759;29;20387;-55
2023/07/31 02:39:47;;;;;;;;;;;;;;;20.60;55.53;101090.63;4085789;29;19978;-54
2023/07/31 02:41:48;;;;;;;;;;;;;;;20.61;55.33;101087.00;4085047;29;20047;-54
2023/07/31 02:43:50;;;;;;;;;;;;;;;20.61;55.67;101080.78;4084598;29;19985;-54
2023/07/31 02:45:52;;;;;;;;;;;;;;;20.60;55.42;101079.94;4100586;29;19926;-54
2023/07/31 02:47:54;;;;;;;;;;;;;;;20.61;55.66;101075.44;4085803;29;19923;-55
2023/07/31 02:49:55;;;;;;;;;;;;;;;20.52;55.11;101063.59;4085684;29;19923;-54
2023/07/31 02:51:57;;;;;;;;;;;;;;;20.58;55.68;101068.50;4084942;29;19926;-55
2023/07/31 02:53:59;;;;;;;;;;;;;;;20.59;55.70;101067.53;4085592;29;19923;-54
2023/07/31 02:56:00;;;;;;;;;;;;;;;20.61;55.16;101065.63;4085624;29;19922;-55
2023/07/31 02:58:02;;;;;;;;;;;;;;;20.59;55.51;101054.19;4085601;29;19933;-56
2023/07/31 03:00:06;;;;;;;;;;;;;;;20.57;55.41;101058.78;4100161;29;19922;-55
2023/07/31 03:02:07;;;;;;;;;;;;;;;20.58;55.48;101060.47;4084873;29;19973;-56
2023/07/31 03:04:09;;;;;;;;;;;;;;;20.56;55.24;101070.41;4085212;29;19929;-56
2023/07/31 03:06:10;;;;;;;;;;;;;;;20.57;55.59;101067.66;4085473;29;19923;-54
2023/07/31 03:08:12;;;;;;;;;;;;;;;20.56;55.46;101068.63;4085552;29;20041;-55
2023/07/31 03:10:13;;;;;;;;;;;;;;;20.55;55.18;101060.72;4085460;29;19929;-55
2023/07/31 03:12:15;;;;;;;;;;;;;;;20.54;55.63;101062.53;4084384;29;19928;-55
2023/07/31 03:14:16;;;;;;;;;;;;;;;20.54;55.44;101072.38;4099876;29;19934;-55
2023/07/31 03:16:18;;;;;;;;;;;;;;;20.56;55.25;101075.75;4085206;29;20294;-55
2023/07/31 03:18:20;;;;;;;;;;;;;;;20.57;55.32;101080.16;4085128;29;19922;-55
2023/07/31 03:20:21;;;;;;;;;;;;;;;20.56;55.17;101081.09;4085263;29;19931;-55
2023/07/31 03:22:23;;;;;;;;;;;;;;;20.54;55.17;101075.03;4091884;29;20012;-55
2023/07/31 03:24:25;;;;;;;;;;;;;;;20.54;55.58;101064.34;4100980;28;19923;-55
2023/07/31 03:26:27;;;;;;;;;;;;;;;20.53;55.19;101055.47;4100966;29;19922;-55
2023/07/31 03:28:28;;;;;;;;;;;;;;;20.54;55.15;101056.34;4101039;29;19922;-55
2023/07/31 03:30:30;;;;;;;;;;;;;;;20.53;55.25;101055.47;4100359;28;19922;-55
2023/07/31 03:32:31;;;;;;;;;;;;;;;20.52;55.13;101051.13;4099874;29;20009;-55
2023/07/31 03:34:33;;;;;;;;;;;;;;;20.53;55.26;101055.47;4100908;29;19922;-55
2023/07/31 03:36:35;;;;;;;;;;;;;;;20.50;55.14;101047.69;4100623;29;20021;-55
2023/07/31 03:38:37;;;;;;;;;;;;;;;20.50;55.27;101047.69;4100844;29;19939;-54
2023/07/31 03:40:38;;;;;;;;;;;;;;;20.49;55.20;101053.16;4100723;29;20013;-56
2023/07/31 03:42:40;;;;;;;;;;;;;;;20.50;54.99;101049.50;4082762;29;19923;-55
2023/07/31 03:44:41;;;;;;;;;;;;;;;20.51;55.10;101051.19;4100714;29;19966;-55
2023/07/31 03:46:43;;;;;;;;;;;;;;;20.51;55.23;101052.06;4100297;28;19923;-55
2023/07/31 03:48:44;;;;;;;;;;;;;;;20.50;54.99;101052.16;4100617;29;19934;-55
2023/07/31 03:50:46;;;;;;;;;;;;;;;20.49;55.08;101048.66;4100557;29;19922;-55
2023/07/31 03:52:47;;;;;;;;;;;;;;;20.50;55.01;101045.03;4099750;29;20301;-55
2023/07/31 03:54:49;;;;;;;;;;;;;;;20.48;55.16;101046.94;4100465;29;19923;-55
2023/07/31 03:56:51;;;;;;;;;;;;;;;20.48;55.32;101043.44;4100442;29;20036;-54
2023/07/31 03:58:52;;;;;;;;;;;;;;;20.47;55.24;101045.22;4100568;29;19973;-55
2023/07/31 04:00:54;;;;;;;;;;;;;;;20.46;55.17;101040.00;4100516;29;19926;-54
2023/07/31 04:02:55;;;;;;;;;;;;;;;20.45;55.10;101044.50;4099191;29;19922;-54
2023/07/31 04:04:57;;;;;;;;;;;;;;;20.43;54.96;101039.25;4100426;29;20354;-55
2023/07/31 04:06:58;;;;;;;;;;;;;;;20.44;55.10;101042.78;4100320;29;19922;-55
2023/07/31 04:09:00;;;;;;;;;;;;;;;20.45;54.82;101035.63;4100497;29;20346;-55
2023/07/31 04:11:01;;;;;;;;;;;;;;;20.42;54.81;101042.88;4100002;29;19958;-55
2023/07/31 04:13:03;;;;;;;;;;;;;;;20.42;55.19;101042.03;4099580;29;19922;-55
2023/07/31 04:15:05;;;;;;;;;;;;;;;20.41;54.84;101038.53;4100264;29;19929;-55
2023/07/31 04:17:06;;;;;;;;;;;;;;;20.41;54.83;101043.00;4100147;29;19922;-55
2023/07/31 04:19:16;;;;;;;;;;;;;;;20.41;54.80;101037.66;4100330;29;19922;-55
2023/07/31 04:21:17;;;;;;;;;;;;;;;20.41;54.52;101037.66;4100249;29;20389;-55
2023/07/31 04:23:19;;;;;;;;;;;;;;;20.40;54.43;101030.59;4099346;29;19922;-55
2023/07/31 04:25:20;;;;;;;;;;;;;;;20.40;54.36;101041.28;4100056;28;19972;-55
2023/07/31 04:27:22;;;;;;;;;;;;;;;20.39;54.69;101034.22;4100000;29;19926;-56
2023/07/31 04:29:24;;;;;;;;;;;;;;;20.39;54.67;101042.25;4100217;29;19923;-55
2023/07/31 04:31:25;;;;;;;;;;;;;;;20.40;54.43;101035.94;4099907;29;20024;-55
2023/07/31 04:33:27;;;;;;;;;;;;;;;20.41;54.26;101043.00;4099294;29;19973;-55
2023/07/31 04:35:28;;;;;;;;;;;;;;;20.39;54.73;101043.13;4083140;29;19982;-54
2023/07/31 04:37:29;;;;;;;;;;;;;;;20.39;54.68;101044.91;4100118;29;19981;-55
2023/07/31 04:39:36;;;;;;;;;;;;;;;20.39;54.49;101047.59;4099859;29;20021;-55
2023/07/31 04:41:42;;;;;;;;;;;;;;;20.37;54.25;101050.38;4099497;29;20309;-56
2023/07/31 04:43:44;;;;;;;;;;;;;;;20.37;54.24;101053.06;4100089;29;19926;-56
2023/07/31 04:45:47;;;;;;;;;;;;;;;20.35;54.56;101044.31;4100040;29;19929;-55
2023/07/31 04:47:49;;;;;;;;;;;;;;;20.35;54.39;101049.66;4082774;29;19923;-55
2023/07/31 04:49:50;;;;;;;;;;;;;;;20.35;54.39;101048.78;4099997;29;19926;-55
2023/07/31 04:51:52;;;;;;;;;;;;;;;20.33;54.11;101062.25;4098208;29;19946;-55
2023/07/31 04:53:58;;;;;;;;;;;;;;;20.32;54.16;101051.69;4099851;29;20020;-55
2023/07/31 04:56:00;;;;;;;;;;;;;;;20.32;54.22;101054.38;4098801;29;19929;-55
2023/07/31 04:58:02;;;;;;;;;;;;;;;20.32;54.18;101054.38;4099829;29;19922;-55
2023/07/31 05:00:03;;;;;;;;;;;;;;;20.33;54.46;101054.25;4099368;29;19923;-55
2023/07/31 05:02:05;;;;;;;;;;;;;;;20.33;54.39;101050.72;4098998;29;20523;-56
2023/07/31 05:04:14;;;;;;;;;;;;;;;20.32;54.13;101057.88;4099665;29;19923;-55
2023/07/31 05:06:16;;;;;;;;;;;;;;;20.31;54.22;101050.81;4099858;29;19922;-55
2023/07/31 05:08:18;;;;;;;;;;;;;;;20.32;54.63;101049.88;4098668;29;19954;-55
2023/07/31 05:10:19;;;;;;;;;;;;;;;20.32;54.74;101049.03;4099945;29;20402;-56
2023/07/31 05:12:20;;;;;;;;;;;;;;;20.32;54.41;101055.22;4098939;29;20302;-56
2023/07/31 05:14:22;;;;;;;;;;;;;;;20.30;54.48;101053.63;4099469;29;20420;-55
2023/07/31 05:16:29;;;;;;;;;;;;;;;20.30;54.61;101042.94;4099619;29;19922;-55
2023/07/31 05:18:36;;;;;;;;;;;;;;;20.29;54.57;101033.22;4099636;29;20313;-55
2023/07/31 05:20:37;;;;;;;;;;;;;;;20.26;54.91;101048.47;4099387;29;19978;-55
2023/07/31 05:22:39;;;;;;;;;;;;;;;20.27;54.58;101049.34;4098758;29;19930;-55
2023/07/31 05:24:40;;;;;;;;;;;;;;;20.26;54.96;101047.63;4099798;28;19929;-55
2023/07/31 05:26:42;;;;;;;;;;;;;;;20.27;54.82;101052.84;4099705;29;19961;-55
2023/07/31 05:28:43;;;;;;;;;;;;;;;20.29;54.61;101041.22;4099359;29;20440;-57
2023/07/31 05:30:45;;;;;;;;;;;;;;;20.26;54.71;101043.13;4099497;29;20021;-56
2023/07/31 05:32:46;;;;;;;;;;;;;;;20.28;54.64;101043.06;4098813;29;20290;-56
2023/07/31 05:34:50;;;;;;;;;;;;;;;20.29;54.89;101033.22;4099813;29;20028;-56
2023/07/31 05:36:53;;;;;;;;;;;;;;;20.27;54.96;101036.00;4099604;29;20349;-56
2023/07/31 05:38:54;;;;;;;;;;;;;;;20.27;54.76;101026.16;4099633;29;20332;-55
2023/07/31 05:40:56;;;;;;;;;;;;;;;20.27;54.78;101036.84;4099488;29;19922;-56
2023/07/31 05:42:57;;;;;;;;;;;;;;;20.26;54.76;101026.28;4098315;29;19954;-56
2023/07/31 05:44:59;;;;;;;;;;;;;;;20.24;54.99;101014.84;4099691;29;19929;-56
2023/07/31 05:47:00;;;;;;;;;;;;;;;20.24;54.75;101013.03;4099636;29;19954;-55
2023/07/31 05:49:02;;;;;;;;;;;;;;;20.23;55.20;101010.44;4099493;29;19958;-55
2023/07/31 05:51:04;;;;;;;;;;;;;;;20.25;55.10;101012.03;4099419;29;19957;-55
2023/07/31 05:53:06;;;;;;;;;;;;;;;20.25;55.13;101019.22;4099726;28;19933;-55
2023/07/31 05:55:08;;;;;;;;;;;;;;;20.26;55.37;101011.09;4102469;29;20382;-56
2023/07/31 05:57:09;;;;;;;;;;;;;;;20.26;55.09;101007.56;4102098;29;19929;-56
2023/07/31 05:59:12;;;;;;;;;;;;;;;20.25;55.50;100998.69;4102184;29;19923;-56
2023/07/31 06:01:13;;;;;;;;;;;;;;;20.23;55.32;100994.44;4102329;29;19923;-54
2023/07/31 06:03:15;;;;;;;;;;;;;;;20.24;55.43;100994.34;4101412;29;20005;-56
2023/07/31 06:05:16;;;;;;;;;;;;;;;20.25;55.30;100998.69;4102381;29;20212;-55
2023/07/31 06:07:19;;;;;;;;;;;;;;;20.23;55.31;100997.09;4102289;29;19922;-55
2023/07/31 06:09:20;;;;;;;;;;;;;;;20.25;55.31;100995.19;4102196;29;19922;-56
2023/07/31 06:11:22;;;;;;;;;;;;;;;20.25;55.37;100995.19;4102082;29;20014;-55
2023/07/31 06:13:23;;;;;;;;;;;;;;;20.25;55.74;100995.19;4101095;28;19922;-54
2023/07/31 06:15:25;;;;;;;;;;;;;;;20.25;55.79;100992.50;4100837;29;20441;-55
2023/07/31 06:17:27;;;;;;;;;;;;;;;20.24;55.50;100980.13;4102077;29;20313;-56
2023/07/31 06:19:28;;;;;;;;;;;;;;;20.25;55.61;100981.81;4102042;29;19985;-55
2023/07/31 06:21:31;;;;;;;;;;;;;;;20.26;55.58;100980.88;4101958;29;19922;-54
2023/07/31 06:23:32;;;;;;;;;;;;;;;20.26;55.61;100978.19;4101197;29;19926;-56
2023/07/31 06:25:34;;;;;;;;;;;;;;;20.26;55.55;100983.53;4101801;28;20405;-56
2023/07/31 06:27:35;;;;;;;;;;;;;;;20.26;55.48;100981.72;4100302;29;19922;-56
2023/07/31 06:29:38;;;;;;;;;;;;;;;20.26;55.77;100988.88;4101850;29;19958;-56
2023/07/31 06:31:40;;;;;;;;;;;;;;;20.26;55.77;100999.56;4101869;29;20403;-56
2023/07/31 06:33:42;;;;;;;;;;;;;;;20.26;55.67;101003.06;4101045;29;20349;-55
2023/07/31 06:35:43;;;;;;;;;;;;;;;20.25;55.31;101004.03;4101961;29;19965;-54
2023/07/31 06:37:45;;;;;;;;;;;;;;;20.24;55.77;101001.47;4101996;29;20032;-54
2023/07/31 06:39:47;;;;;;;;;;;;;;;20.23;55.93;101005.09;4101606;29;19966;-56
2023/07/31 06:41:48;;;;;;;;;;;;;;;20.23;55.84;100989.09;4101359;29;20006;-53
2023/07/31 06:43:50;;;;;;;;;;;;;;;20.23;55.86;100989.09;4100939;29;19923;-55
2023/07/31 06:45:51;;;;;;;;;;;;;;;20.22;55.87;100998.94;4101572;29;20301;-52
2023/07/31 06:47:53;;;;;;;;;;;;;;;20.23;56.25;100997.97;4101337;29;19926;-52
2023/07/31 06:49:55;;;;;;;;;;;;;;;20.24;56.15;100998.81;4101658;29;19970;-54
2023/07/31 06:51:57;;;;;;;;;;;;;;;20.24;55.83;101007.69;4100099;29;19922;-55
2023/07/31 06:53:58;;;;;;;;;;;;;;;20.25;55.91;101013.88;4100544;29;19944;-55
2023/07/31 06:56:00;;;;;;;;;;;;;;;20.24;56.08;101007.69;4101096;29;19922;-55
2023/07/31 06:58:01;;;;;;;;;;;;;;;20.23;56.39;101014.00;4101710;29;19922;-55
2023/07/31 07:00:04;;;;;;;;;;;;;;;20.25;56.09;101014.72;4101444;28;19926;-55
2023/07/31 07:02:05;;;;;;;;;;;;;;;20.24;56.18;101010.38;4101174;29;19926;-56
2023/07/31 07:04:07;;;;;;;;;;;;;;;20.25;56.09;101011.22;4100086;28;19993;-56
2023/07/31 07:06:09;;;;;;;;;;;;;;;20.23;56.25;101011.31;4100963;29;19923;-55
2023/07/31 07:08:10;;;;;;;;;;;;;;;20.25;56.31;101008.53;4100973;29;19953;-56
2023/07/31 07:10:12;;;;;;;;;;;;;;;20.26;56.30;100997.72;4100959;29;19930;-56
2023/07/31 07:12:13;;;;;;;;;;;;;;;20.27;56.41;100990.59;4100536;29;19926;-51
2023/07/31 07:14:15;;;;;;;;;;;;;;;20.25;56.39;100982.66;4101211;29;19926;-52
2023/07/31 07:16:17;;;;;;;;;;;;;;;20.27;55.87;100988.75;4101158;29;20287;-53
2023/07/31 07:18:18;;;;;;;;;;;;;;;20.26;56.48;100984.38;4100954;29;19922;-53
2023/07/31 07:20:20;;;;;;;;;;;;;;;20.26;56.59;100980.88;4099750;29;20394;-51
2023/07/31 07:22:21;;;;;;;;;;;;;;;20.28;56.37;100976.28;4100338;29;20298;-55
2023/07/31 07:24:23;;;;;;;;;;;;;;;20.30;56.44;100974.31;4100349;28;19926;-56
2023/07/31 07:26:24;;;;;;;;;;;;;;;20.32;56.59;100982.25;4100944;29;19923;-55
2023/07/31 07:28:28;;;;;;;;;;;;;;;20.32;56.45;100983.09;4100752;29;19922;-56
2023/07/31 07:30:29;;;;;;;;;;;;;;;20.32;56.68;100979.56;4100823;29;20025;-55
2023/07/31 07:32:31;;;;;;;;;;;;;;;20.31;56.56;100973.38;4100263;29;19922;-56
2023/07/31 07:34:33;;;;;;;;;;;;;;;20.31;56.58;100973.38;4100900;29;19945;-55
2023/07/31 07:36:34;;;;;;;;;;;;;;;20.31;56.33;100977.88;4083644;29;20029;-56
2023/07/31 07:38:37;;;;;;;;;;;;;;;20.34;56.16;100970.47;4100490;29;19930;-56
2023/07/31 07:40:39;;;;;;;;;;;;;;;20.34;55.98;100980.28;4100750;29;19922;-56
2023/07/31 07:42:40;;;;;;;;;;;;;;;20.33;56.52;100982.13;4100026;29;19933;-55
2023/07/31 07:44:42;;;;;;;;;;;;;;;20.35;56.26;100968.66;4100508;29;19957;-56
2023/07/31 07:46:43;;;;;;;;;;;;;;;20.37;56.05;100969.41;4100704;29;19926;-56
2023/07/31 07:48:45;;;;;;;;;;;;;;;20.36;56.09;100960.50;4100592;29;19970;-56
2023/07/31 07:50:46;;;;;;;;;;;;;;;20.38;55.82;100947.91;4099309;29;19923;-56
2023/07/31 07:52:48;;;;;;;;;;;;;;;20.39;56.14;100962.97;4099855;29;19922;-55
2023/07/31 07:54:50;;;;;;;;;;;;;;;20.42;55.89;100976.09;4099843;29;19964;-56
2023/07/31 07:56:51;;;;;;;;;;;;;;;20.42;55.75;100967.25;4100548;29;19953;-56
2023/07/31 07:58:54;;;;;;;;;;;;;;;20.43;56.05;100966.28;4100411;29;19922;-56
2023/07/31 08:00:55;;;;;;;;;;;;;;;20.42;56.02;100965.41;4100443;29;19954;-56
2023/07/31 08:02:58;;;;;;;;;;;;;;;20.43;55.96;100972.47;4099678;29;19930;-55
2023/07/31 08:05:00;;;;;;;;;;;;;;;20.42;56.03;100964.56;4100289;29;19969;-56
2023/07/31 08:07:01;;;;;;;;;;;;;;;20.42;56.35;100961.91;4100451;29;19922;-55
2023/07/31 08:09:06;;;;;;;;;;;;;;;20.41;56.26;100970.88;4099975;29;19929;-55
2023/07/31 08:11:07;;;;;;;;;;;;;;;20.40;56.26;100964.69;4100155;29;19923;-55
2023/07/31 08:13:10;;;;;;;;;;;;;;;20.40;56.03;100956.69;4099537;29;19945;-56
2023/07/31 08:15:11;;;;;;;;;;;;;;;20.41;56.30;100949.50;4100305;29;19922;-56
2023/07/31 08:17:13;;;;;;;;;;;;;;;20.40;56.56;100956.69;4100057;28;19924;-56
2023/07/31 08:19:14;;;;;;;;;;;;;;;20.41;56.21;100952.16;4100184;29;20391;-56
2023/07/31 08:21:16;;;;;;;;;;;;;;;20.41;56.18;100949.50;4100248;29;19922;-53
2023/07/31 08:23:17;;;;;;;;;;;;;;;20.43;55.90;100959.09;4098927;29;20005;-56
2023/07/31 08:25:19;;;;;;;;;;;;;;;20.48;55.99;100958.78;4100263;28;20013;-56
2023/07/31 08:27:20;;;;;;;;;;;;;;;20.49;56.08;100960.47;4100208;29;19922;-56
2023/07/31 08:29:22;;;;;;;;;;;;;;;20.53;55.89;100961.94;4099933;29;20298;-56
2023/07/31 08:31:23;;;;;;;;;;;;;;;20.56;56.08;100955.53;4100115;29;20386;-56
2023/07/31 08:33:25;;;;;;;;;;;;;;;20.55;56.09;100954.69;4099234;29;20013;-55
2023/07/31 08:35:30;;;;;;;;;;;;;;;20.51;56.15;100966.56;4100115;29;20282;-56
2023/07/31 08:37:31;;;;;;;;;;;;;;;20.53;55.79;100953.09;4099622;29;19929;-56
2023/07/31 08:39:33;;;;;;;;;;;;;;;20.50;55.98;100951.50;4099886;29;19946;-56
2023/07/31 08:41:39;;;;;;;;;;;;;;;20.50;55.97;100940.81;4099977;29;20239;-53
2023/07/31 08:43:41;;;;;;;;;;;;;;;20.51;55.83;100942.53;4099049;29;19922;-55
2023/07/31 08:45:43;;;;;;;;;;;;;;;20.52;56.12;100940.69;4099966;29;19970;-55
2023/07/31 08:47:45;;;;;;;;;;;;;;;20.52;55.83;100936.22;4099978;29;19933;-55
2023/07/31 08:49:49;;;;;;;;;;;;;;;20.55;55.61;100948.50;4099738;29;19923;-55
2023/07/31 08:51:57;;;;;;;;;;;;;;;20.55;55.64;100937.81;4099527;29;20298;-56
2023/07/31 08:53:59;;;;;;;;;;;;;;;20.55;56.07;100941.31;4099175;29;19945;-56
2023/07/31 08:56:01;;;;;;;;;;;;;;;20.55;55.88;100927.13;4099717;29;19977;-56
2023/07/31 08:58:03;;;;;;;;;;;;;;;20.55;55.67;100937.81;4099914;29;19958;-56
2023/07/31 09:00:06;;;;;;;;;;;;;;;20.54;55.64;100928.91;4099860;29;19976;-56
2023/07/31 09:02:08;;;;;;;;;;;;;;;20.55;55.64;100921.78;4099721;29;19922;-56
2023/07/31 09:04:10;;;;;;;;;;;;;;;20.54;56.06;100936.94;4099023;29;19981;-56
2023/07/31 09:06:12;;;;;;;;;;;;;;;20.54;55.75;100925.41;4099431;29;19923;-56
2023/07/31 09:08:17;;;;;;;;;;;;;;;20.54;55.53;100926.25;4099801;29;20108;-56
2023/07/31 09:10:19;;;;;;;;;;;;;;;20.54;55.83;100936.94;4099748;29;20037;-56
2023/07/31 09:12:20;;;;;;;;;;;;;;;20.55;55.79;100938.66;4099804;29;20389;-56
2023/07/31 09:14:24;;;;;;;;;;;;;;;20.53;55.75;100940.56;4098926;29;19923;-56
2023/07/31 09:16:30;;;;;;;;;;;;;;;20.53;55.68;100940.56;4098740;29;20013;-55
2023/07/31 09:18:52;;;;;;;;;;;;;;;20.54;55.76;100950.31;4099616;29;20044;-56
2023/07/31 09:21:03;;;;;;;;;;;;;;;20.56;55.64;100944.84;4099220;29;19945;-56
2023/07/31 09:23:09;;;;;;;;;;;;;;;20.56;55.79;100942.16;4099018;29;19933;-55
2023/07/31 09:25:15;;;;;;;;;;;;;;;20.55;55.83;100946.66;4099274;28;19930;-55
2023/07/31 09:27:16;;;;;;;;;;;;;;;20.56;56.11;100956.41;4099783;28;19923;-56
2023/07/31 09:29:18;;;;;;;;;;;;;;;20.55;56.02;100949.34;4101042;29;20400;-55
2023/07/31 09:31:32;;;;;;;;;;;;;;;20.56;56.00;100950.19;4102705;29;19929;-56
2023/07/31 09:33:53;;;;;;;;;;;;;;;20.55;56.06;100949.34;4102028;29;19941;-56
2023/07/31 09:35:55;;;;;;;;;;;;;;;20.57;55.82;100946.53;4102405;29;19926;-55
2023/07/31 09:37:57;;;;;;;;;;;;;;;20.54;56.03;100934.28;4102643;29;19922;-56
2023/07/31 09:39:59;;;;;;;;;;;;;;;20.53;56.31;100937.91;4102619;29;19930;-57
2023/07/31 09:42:01;;;;;;;;;;;;;;;20.52;55.94;100949.59;4102590;28;19964;-56
2023/07/31 09:44:02;;;;;;;;;;;;;;;20.54;56.03;100950.31;4101631;29;19953;-56
2023/07/31 09:46:12;;;;;;;;;;;;;;;20.54;56.01;100936.09;4102353;29;19954;-55
2023/07/31 09:48:16;;;;;;;;;;;;;;;20.51;56.15;100934.50;4102353;29;19922;-54
2023/07/31 09:50:17;;;;;;;;;;;;;;;20.53;56.16;100937.06;4102128;29;19930;-56
2023/07/31 09:52:19;;;;;;;;;;;;;;;20.52;56.16;100932.69;4102335;29;20397;-55
2023/07/31 09:54:20;;;;;;;;;;;;;;;20.51;56.16;100933.66;4101581;29;19930;-56
2023/07/31 09:56:23;;;;;;;;;;;;;;;20.51;56.23;100931.84;4102245;29;20351;-55
2023/07/31 09:58:25;;;;;;;;;;;;;;;20.53;56.67;100923.69;4102343;29;20302;-54
2023/07/31 10:00:29;;;;;;;;;;;;;;;20.51;56.11;100929.16;4102102;29;19957;-55
2023/07/31 10:02:31;;;;;;;;;;;;;;;20.52;56.34;100922.00;4102213;29;20001;-55
2023/07/31 10:04:33;;;;;;;;;;;;;;;20.52;56.44;100920.19;4100978;29;19922;-56
2023/07/31 10:06:35;;;;;;;;;;;;;;;20.48;56.59;100908.00;4102139;29;19960;-55
2023/07/31 10:08:38;;;;;;;;;;;;;;;20.50;56.31;100908.75;4102168;29;19923;-56
2023/07/31 10:10:41;;;;;;;;;;;;;;;20.52;56.32;100901.50;4102060;29;19923;-54
2023/07/31 10:12:43;;;;;;;;;;;;;;;20.54;56.31;100896.03;4101844;29;19929;-56
2023/07/31 10:14:45;;;;;;;;;;;;;;;20.54;56.49;100904.88;4101676;29;19933;-56
2023/07/31 10:16:47;;;;;;;;;;;;;;;20.53;56.87;100907.66;4102001;29;19968;-55
2023/07/31 10:18:49;;;;;;;;;;;;;;;20.52;57.19;100906.84;4101690;29;19944;-56
2023/07/31 10:20:54;;;;;;;;;;;;;;;20.51;56.94;100920.28;4101979;29;20001;-56
2023/07/31 10:22:56;;;;;;;;;;;;;;;20.50;57.04;100908.75;4101337;29;20001;-56
2023/07/31 10:24:58;;;;;;;;;;;;;;;20.50;57.51;100892.72;4101686;28;20522;-56
2023/07/31 10:27:01;;;;;;;;;;;;;;;20.51;57.37;100898.91;4101897;29;19929;-56